Hiawatha, IA

4:37 AM CDT on March 28, 2015 (GMT -0500)
Hiawatha | | Change Station
CLOSE
Current Station
Personal Weather Station
Location: Hiawatha, IA
Elevation: 840 ft
Nearby Weather Stations

Elev 840 ft 42.04 °N, 91.69 °W | Updated 402 days ago

Mostly Cloudy
Mostly Cloudy
25 °F
Feels Like 20 °F
N
4
Wind Variable Wind from ESE
Gusts mph

Today
High -- | Low -- °F
--% Chance of Precip.
Yesterday
High -- | Low -- °F
Precip. -- in
6:56 AM 7:27 PM
First Quarter, 61% visible
Pressure 30.22 in
Visibility 10.0 miles
Clouds Clear
Windchill 20 °F
Dew Point 16 °F
Humidity 68%
Rainfall in
Snow Depth Not available.
UV 0 out of 12
Pollen 3.20 out of 12
Air Quality Not available.
Flu Activity Not available.
METAR KCID 280852Z AUTO 11006KT 10SM CLR M06/M10 A3019 RMK AO2 SLP233 T10611100 53003

More Conditions Fewer Conditions

Pressure 30.22 in
Visibility 10.0 miles
Clouds Clear
Windchill 20 °F
Dew Point 16 °F
Humidity 68%
Rainfall in
Snow Depth Not available.
UV 0 out of 12
Pollen 3.20 out of 12
Air Quality Not available.
Flu Activity Not available.
METAR KCID 280852Z AUTO 11006KT 10SM CLR M06/M10 A3019 RMK AO2 SLP233 T10611100 53003

More Conditions Fewer Conditions

10-Day Weather Forecast

Almanac

Astronomy

Mar. 28, 2015 Rise Set
Actual Time
Civil Twilight
Nautical Twilight
Astronomical Twilight
Moon
Length of Visible Light
Length of Day
Tomorrow will be .
, % of the Moon is Illuminated

Today's Extremes

State Highs State Lows

Community

WunderPhotos

Upload Photos

1,808,939 photos uploaded!

WunderBlogs® & News

Nearby

Air Quality

  Air Quality AQ Index Pollutant
Not available.

Snow Depth

Station Depth Elevation

Earthquake Activity

City Distance Mag. Time & Date
Minimum magnitude displayed is 2.5.

Coastal Water Temperatures

Place Temperature

Stations

Nearby Weather Stations

Station Location Temp. Windchill Dew Point Humidity Wind Precip. Elev Updated Type